KD5ATU Weather Reports


Display with metric or nautical units.
time (UTC)temp
F
wind
direction
speed
MPH
gust
MPH
rain 1hr
in
rain 24hr
in
rain mn
in
humidity
%
barometer
mb
20190524193300 90 289 1.0 5.0 0.00 0.02 0.02 49 1018.7
20190524191545 91 314 1.0 4.0 0.00 0.02 0.02 52 1018.8
20190524190102 90 41 1.0 6.0 0.00 0.02 0.02 48 1019.0
20190524184604 90 85 1.0 5.0 0.00 0.02 0.02 50 1019.2
20190524183100 91 252 0.0 4.0 0.00 0.02 0.02 51 1019.2
20190524181604 91 316 1.0 3.0 0.00 0.02 0.02 53 1019.3
20190524180037 91 329 0.0 6.0 0.00 0.02 0.02 46 1019.5
20190524174541 90 120 2.0 7.0 0.00 0.02 0.02 53 1019.6
20190524173054 90 325 0.0 4.0 0.00 0.02 0.02 50 1019.5
20190524171536 90 113 0.0 4.0 0.00 0.02 0.02 53 1019.7
20190524170042 89 70 0.0 7.0 0.00 0.02 0.02 51 1019.8
20190524164518 89 13 0.0 7.0 0.00 0.02 0.02 57 1019.9
20190524163021 88 320 1.0 4.0 0.00 0.02 0.02 57 1020.0
20190524161527 88 67 0.0 4.0 0.00 0.02 0.02 57 1020.0
20190524160035 87 159 1.0 5.0 0.01 0.02 0.02 56 1020.0
20190524154528 87 162 0.0 2.0 0.02 0.04 0.02 62 1020.0
20190524153032 86 121 0.0 5.0 0.02 0.04 0.02 58 1020.1
20190524151739 85 60 0.0 3.0 0.02 0.04 0.02 63 1020.2
20190524150120 85 65 0.0 3.0 0.01 0.03 0.01 66 1020.2
20190524144637 84 335 0.0 3.0 0.00 0.18 0.00 71 1020.2
20190524143131 82 27 0.0 1.0 0.00 0.18 0.00 74 1020.3
20190524141614 79 126 0.0 2.0 0.00 0.18 0.00 82 1020.2
20190524140149 77 336 0.0 1.0 0.00 0.18 0.00 88 1020.2
20190524134555 76 338 0.0 1.0 0.00 0.18 0.00 91 1020.0
20190524133056 74 337 0.0 1.0 0.00 0.18 0.00 95 1020.0
20190524131605 73 4 0.0 0.0 0.00 0.18 0.00 98 1019.9
20190524130055 73 4 0.0 0.0 0.00 0.18 0.00 98 1019.8
20190524124542 72 3 0.0 0.0 0.00 0.18 0.00 98 1019.7
20190524123128 72 3 0.0 0.0 0.00 0.18 0.00 98 1019.6
20190524121651 71 3 0.0 0.0 0.00 0.18 0.00 98 1019.5
20190524120039 70 3 0.0 0.0 0.00 0.18 0.00 98 1019.2
20190524114536 70 3 0.0 0.0 0.00 0.18 0.00 98 1019.1
20190524113032 69 3 0.0 0.0 0.00 0.18 0.00 98 1018.9
20190524111514 69 3 0.0 0.0 0.00 0.18 0.00 98 1018.7
20190524110022 69 3 0.0 0.0 0.00 0.18 0.00 98 1018.6
20190524104507 69 3 0.0 0.0 0.00 0.18 0.00 98 1018.4
20190524103017 69 3 0.0 0.0 0.00 0.18 0.00 98 1018.3
20190524101504 69 3 0.0 0.0 0.00 0.18 0.00 98 1018.1
20190524100007 68 4 0.0 0.0 0.00 0.18 0.00 98 1017.9
20190524093007 68 3 0.0 0.0 0.00 0.18 0.00 98 1017.8
20190524091759 68 3 0.0 0.0 0.00 0.18 0.00 98 1017.7
20190524090215 69 4 0.0 0.0 0.00 0.18 0.00 98 1017.7
20190524084657 68 3 0.0 0.0 0.00 0.18 0.00 98 1017.6
20190524083421 68 3 0.0 0.0 0.00 0.18 0.00 97 1017.4
20190524081657 68 3 0.0 0.0 0.00 0.18 0.00 97 1017.4
20190524080219 68 3 0.0 0.0 0.00 0.18 0.00 97 1017.3
20190524074747 68 3 0.0 0.0 0.00 0.18 0.00 97 1017.3
20190524073134 68 3 0.0 0.0 0.00 0.18 0.00 97 1017.3
20190524071658 68 4 0.0 0.0 0.00 0.18 0.00 97 1017.4
20190524070153 68 4 0.0 0.0 0.00 0.18 0.00 97 1017.2
20190524064703 67 3 0.0 0.0 0.00 0.18 0.00 97 1017.4
20190524063126 68 3 0.0 0.0 0.00 0.18 0.00 97 1017.6
20190524061658 68 3 0.0 0.0 0.00 0.18 0.00 96 1017.7
20190524060227 68 3 0.0 0.0 0.00 0.18 0.00 96 1017.7
20190524054651 68 3 0.0 0.0 0.00 0.18 0.00 96 1017.7
20190524053153 68 3 0.0 0.0 0.00 0.18 0.00 96 1017.9
20190524051700 69 3 0.0 0.0 0.00 0.18 0.00 95 1017.9
20190524050110 69 3 0.0 0.0 0.00 0.18 0.00 95 1018.0
20190524044628 69 3 0.0 0.0 0.00 0.18 0.18 95 1018.1
20190524043119 69 3 0.0 0.0 0.00 0.18 0.18 95 1018.2
20190524041634 69 4 0.0 0.0 0.00 0.18 0.18 95 1018.1
20190524040147 70 3 0.0 0.0 0.00 0.18 0.18 95 1018.1
20190524034634 70 4 0.0 0.0 0.00 0.18 0.18 95 1018.1
20190524033117 70 3 0.0 0.0 0.00 0.18 0.18 95 1018.2
20190524031545 70 4 0.0 0.0 0.00 0.18 0.18 94 1018.2
20190524030110 70 3 0.0 0.0 0.00 0.18 0.18 94 1018.1
20190524024623 71 3 0.0 0.0 0.00 0.18 0.18 93 1018.0
20190524023116 71 3 0.0 0.0 0.00 0.18 0.18 93 1018.1
20190524021703 72 3 0.0 0.0 0.00 0.18 0.18 92 1018.1
20190524020120 72 4 0.0 0.0 0.00 0.18 0.18 91 1018.0
20190524014617 73 4 0.0 0.0 0.00 0.18 0.18 90 1017.9
20190524013236 73 3 0.0 0.0 0.00 0.18 0.18 89 1017.8
20190524011616 74 4 0.0 0.0 0.00 0.18 0.18 87 1017.8
20190524010100 75 4 0.0 0.0 0.00 0.18 0.18 85 1017.8
20190524004556 77 3 0.0 0.0 0.00 0.18 0.18 82 1017.7
20190524003101 79 3 0.0 0.0 0.00 0.18 0.18 79 1017.7
20190524001604 82 4 0.0 0.0 0.00 0.18 0.18 74 1017.7
20190524000139 86 3 0.0 0.0 0.00 0.18 0.18 67 1017.6
20190523234607 88 4 0.0 0.0 0.00 0.18 0.18 62 1017.7
20190523231542 90 3 0.0 1.0 0.00 0.18 0.18 58 1017.9
20190523230053 91 30 0.0 0.0 0.00 0.18 0.18 59 1018.0
20190523224631 91 30 0.0 2.0 0.00 0.18 0.18 57 1018.1
20190523223058 92 326 0.0 1.0 0.00 0.18 0.18 53 1018.0
20190523221555 93 320 0.0 1.0 0.00 0.18 0.18 53 1018.0
20190523220053 92 262 0.0 2.0 0.00 0.18 0.18 50 1018.2
20190523214538 92 325 0.0 4.0 0.00 0.18 0.18 50 1018.2
20190523213035 92 311 0.0 2.0 0.00 0.18 0.18 50 1018.3
20190523211611 92 316 0.0 5.0 0.00 0.18 0.18 52 1018.5
20190523210048 93 86 0.0 3.0 0.00 0.18 0.18 48 1018.5
20190523204539 92 328 0.0 2.0 0.00 0.18 0.18 49 1018.6
20190523203038 92 335 0.0 5.0 0.00 0.18 0.18 47 1018.7
20190523201533 92 258 0.0 3.0 0.00 0.18 0.18 51 1018.8
20190523200028 91 130 0.0 4.0 0.00 0.18 0.18 48 1018.8
20190523194518 91 271 0.0 2.0 0.00 0.19 0.18 50 1018.9